Time;durP1;ratioP1;P1;durP2;ratioP2;P2;SDS_P1;SDS_P2;PMS_P1;PMS_P2;Temp;Humidity;BMP_temperature;BMP_pressure;BME280_temperature;BME280_humidity;BME280_pressure;Samples;Min_cycle;Max_cycle;Signal;HPM_P1;HPM_P2
2022/03/11 00:00:54;;;;;;;12.98;6.78;;;5.20;39.20;;;;;;5038390;28;20028;-83
2022/03/11 00:03:20;;;;;;;14.35;6.95;;;5.00;39.40;;;;;;5056123;28;20123;-83
2022/03/11 00:05:46;;;;;;;13.15;6.35;;;5.30;39.10;;;;;;5058225;28;20046;-86
2022/03/11 00:08:12;;;;;;;14.80;7.00;;;5.40;39.10;;;;;;5057911;28;20471;-84
2022/03/11 00:10:38;;;;;;;14.20;7.15;;;5.50;39.00;;;;;;5049423;28;20115;-84
2022/03/11 00:13:05;;;;;;;14.40;7.35;;;5.60;38.90;;;;;;5037916;28;20052;-84
2022/03/11 00:15:31;;;;;;;12.65;6.80;;;5.30;38.90;;;;;;5038209;28;20021;-84
2022/03/11 00:17:57;;;;;;;12.25;6.32;;;5.10;38.90;;;;;;5037902;28;20120;-84
2022/03/11 00:20:24;;;;;;;13.68;6.75;;;4.90;39.40;;;;;;5038400;28;20463;-87
2022/03/11 00:22:51;;;;;;;14.23;7.57;;;4.80;40.00;;;;;;5037685;28;20437;-87
2022/03/11 00:25:19;;;;;;;14.52;7.40;;;5.00;39.70;;;;;;5038367;28;20028;-84
2022/03/11 00:27:45;;;;;;;15.50;8.05;;;5.20;39.10;;;;;;5037789;28;20375;-86
2022/03/11 00:30:11;;;;;;;12.82;7.47;;;5.30;39.10;;;;;;5038600;28;20108;-84
2022/03/11 00:32:37;;;;;;;15.55;8.55;;;5.30;39.70;;;;;;5037562;28;20108;-84
2022/03/11 00:35:07;;;;;;;14.18;7.55;;;5.10;39.30;;;;;;5036789;28;20463;-86
2022/03/11 00:37:32;;;;;;;14.93;6.93;;;4.90;39.50;;;;;;5037606;28;20119;-85
2022/03/11 00:39:58;;;;;;;15.85;7.75;;;4.40;40.20;;;;;;5040081;28;20326;-84
2022/03/11 00:42:24;;;;;;;12.77;6.50;;;4.30;40.40;;;;;;5057451;28;20534;-84
2022/03/11 00:44:49;;;;;;;14.15;7.50;;;4.30;40.10;;;;;;5057229;28;20025;-84
2022/03/11 00:47:15;;;;;;;14.32;7.15;;;4.30;40.40;;;;;;5057840;28;20035;-86
2022/03/11 00:49:41;;;;;;;12.07;7.03;;;4.10;40.40;;;;;;5056803;28;20021;-85
2022/03/11 00:52:06;;;;;;;13.15;7.13;;;4.00;41.00;;;;;;5053836;28;20483;-87
2022/03/11 00:54:32;;;;;;;15.10;7.72;;;4.40;40.60;;;;;;5057111;28;20119;-87
2022/03/11 00:56:58;;;;;;;14.02;7.22;;;4.40;40.10;;;;;;5057659;28;20463;-87
2022/03/11 00:59:24;;;;;;;15.77;8.00;;;4.40;40.40;;;;;;5057019;28;20031;-87
2022/03/11 01:01:49;;;;;;;15.13;8.18;;;4.60;40.10;;;;;;5056624;28;20127;-86
2022/03/11 01:04:15;;;;;;;12.40;6.70;;;4.90;39.70;;;;;;5057374;28;20112;-88
2022/03/11 01:06:41;;;;;;;16.67;8.07;;;4.90;39.70;;;;;;5057266;28;20100;-85
2022/03/11 01:09:07;;;;;;;13.48;7.40;;;4.70;40.00;;;;;;5057116;28;20028;-87
2022/03/11 01:11:33;;;;;;;15.68;6.88;;;4.60;40.30;;;;;;5041299;28;20057;-86
2022/03/11 01:13:59;;;;;;;11.43;6.53;;;4.50;40.30;;;;;;5037465;28;20025;-86
2022/03/11 01:16:27;;;;;;;13.65;7.15;;;4.50;40.30;;;;;;5036758;28;20074;-88
2022/03/11 01:18:54;;;;;;;14.68;6.93;;;4.60;40.30;;;;;;5045432;28;20055;-89
2022/03/11 01:21:19;;;;;;;12.77;7.35;;;4.50;40.00;;;;;;5056374;28;20048;-85
2022/03/11 01:23:45;;;;;;;14.80;7.50;;;4.40;40.50;;;;;;5057403;28;20027;-90
2022/03/11 01:26:12;;;;;;;11.77;7.18;;;4.50;40.30;;;;;;5056610;28;20024;-86
2022/03/11 01:28:41;;;;;;;16.27;8.20;;;4.90;40.10;;;;;;5055778;28;20475;-87
2022/03/11 01:31:11;;;;;;;14.23;7.68;;;5.00;39.50;;;;;;5056393;28;20044;-87
2022/03/11 01:33:38;;;;;;;;;;;4.90;39.60;;;;;;5056854;28;20434;-87
2022/03/11 01:36:04;;;;;;;15.75;7.25;;;4.70;39.60;;;;;;5056480;28;19916;-86
2022/03/11 01:38:29;;;;;;;15.65;7.90;;;4.20;40.50;;;;;;5050546;28;20037;-89
2022/03/11 01:40:55;;;;;;;15.60;7.38;;;4.10;41.00;;;;;;5036551;28;20036;-89
2022/03/11 01:43:21;;;;;;;16.05;8.00;;;4.10;40.70;;;;;;5045479;28;20074;-86
2022/03/11 01:45:46;;;;;;;17.27;8.27;;;4.10;40.90;;;;;;5056098;28;20123;-89
2022/03/11 01:48:12;;;;;;;21.13;8.88;;;4.20;40.70;;;;;;5056276;28;20025;-89
2022/03/11 01:50:40;;;;;;;16.27;8.10;;;4.00;40.70;;;;;;5056180;28;20111;-87
2022/03/11 01:53:10;;;;;;;13.95;7.78;;;4.40;40.50;;;;;;5049582;28;20075;-90
2022/03/11 01:55:37;;;;;;;16.33;7.57;;;4.50;40.40;;;;;;5020465;28;20443;-89
2022/03/11 01:58:04;;;;;;;14.05;7.78;;;4.40;40.00;;;;;;5035970;28;20376;-86
2022/03/11 02:00:31;;;;;;;15.32;7.75;;;3.90;41.00;;;;;;5036155;28;20024;-88
2022/03/11 02:02:57;;;;;;;20.60;9.20;;;4.00;41.10;;;;;;5054733;28;20383;-86
2022/03/11 02:05:23;;;;;;;18.13;9.23;;;4.10;40.80;;;;;;5054406;28;20476;-87
2022/03/11 02:07:49;;;;;;;14.32;7.28;;;4.00;40.70;;;;;;5055778;28;20056;-87
2022/03/11 02:10:16;;;;;;;16.13;7.72;;;4.00;40.70;;;;;;5055898;28;20029;-87
2022/03/11 02:12:42;;;;;;;17.05;8.10;;;4.10;40.70;;;;;;5038869;28;20053;-86
2022/03/11 02:15:09;;;;;;;17.17;7.72;;;4.10;40.50;;;;;;5036142;28;20025;-88
2022/03/11 02:17:35;;;;;;;13.20;6.72;;;3.80;40.70;;;;;;5036067;28;20489;-88
2022/03/11 02:20:02;;;;;;;13.73;6.82;;;3.70;41.30;;;;;;5042664;28;20036;-84
2022/03/11 02:22:34;;;;;;;15.13;7.47;;;4.00;40.70;;;;;;5071034;28;20025;-84
2022/03/11 02:25:00;;;;;;;16.33;7.25;;;4.00;40.60;;;;;;5035895;28;20025;-83
2022/03/11 02:27:25;;;;;;;14.25;8.32;;;3.70;40.60;;;;;;5035489;28;20025;-84
2022/03/11 02:29:51;;;;;;;18.88;8.15;;;3.30;41.50;;;;;;5058867;28;20056;-84
2022/03/11 02:32:17;;;;;;;16.60;8.25;;;3.10;41.50;;;;;;5055239;28;20082;-84
2022/03/11 02:34:42;;;;;;;16.55;8.20;;;3.00;42.40;;;;;;5055826;28;20455;-81
2022/03/11 02:37:09;;;;;;;13.68;7.60;;;3.00;42.10;;;;;;5055819;28;20036;-85
2022/03/11 02:39:35;;;;;;;14.70;7.68;;;3.10;42.30;;;;;;5052452;28;20029;-84
2022/03/11 02:42:03;;;;;;;13.32;7.15;;;3.40;41.50;;;;;;5035638;28;20032;-86
2022/03/11 02:44:31;;;;;;;17.15;7.97;;;3.50;41.30;;;;;;5035705;28;20082;-82
2022/03/11 02:47:00;;;;;;;16.25;8.05;;;3.20;41.20;;;;;;5053206;28;20028;-81
2022/03/11 02:49:27;;;;;;;15.30;8.18;;;2.60;42.20;;;;;;5035307;28;20451;-81
2022/03/11 02:51:53;;;;;;;13.93;7.65;;;2.50;42.60;;;;;;5035291;28;20136;-81
2022/03/11 02:54:19;;;;;;;16.13;8.32;;;2.60;42.60;;;;;;5035398;28;20441;-82
2022/03/11 02:56:45;;;;;;;15.77;8.10;;;2.80;42.30;;;;;;5035341;28;20025;-81
2022/03/11 02:59:10;;;;;;;20.55;10.02;;;2.80;42.10;;;;;;5056767;28;20021;-83
2022/03/11 03:01:36;;;;;;;16.90;8.95;;;2.50;42.30;;;;;;5055645;28;20475;-84
2022/03/11 03:04:02;;;;;;;15.50;7.65;;;2.20;42.50;;;;;;5077290;28;20060;-83
2022/03/11 03:06:27;;;;;;;12.70;6.70;;;1.80;43.50;;;;;;5059081;28;20082;-82
2022/03/11 03:08:53;;;;;;;13.43;7.05;;;2.00;43.50;;;;;;5075002;28;20067;-82
2022/03/11 03:11:19;;;;;;;14.23;7.72;;;2.10;42.80;;;;;;5037065;28;20056;-83
2022/03/11 03:13:45;;;;;;;13.40;7.55;;;2.10;43.00;;;;;;5051382;28;20064;-83
2022/03/11 03:16:15;;;;;;;15.05;7.43;;;1.60;43.90;;;;;;5055667;28;20025;-84
2022/03/11 03:18:41;;;;;;;11.88;7.07;;;1.10;45.00;;;;;;5055095;28;20489;-81
2022/03/11 03:21:06;;;;;;;14.88;7.15;;;1.10;45.40;;;;;;5037883;28;20033;-83
2022/03/11 03:23:32;;;;;;;15.65;7.45;;;1.70;44.30;;;;;;5035539;28;20049;-82
2022/03/11 03:25:58;;;;;;;13.95;7.40;;;2.00;43.90;;;;;;5036417;28;20543;-83
2022/03/11 03:28:23;;;;;;;14.18;6.70;;;2.40;43.40;;;;;;5052157;28;20030;-83
2022/03/11 03:30:49;;;;;;;14.90;6.78;;;2.40;42.80;;;;;;5053359;28;20043;-84
2022/03/11 03:33:15;;;;;;;14.75;7.03;;;1.70;43.50;;;;;;5055216;28;20036;-82
2022/03/11 03:35:41;;;;;;;13.27;7.22;;;1.30;45.00;;;;;;5056128;28;20021;-83
2022/03/11 03:38:06;;;;;;;14.18;6.90;;;1.40;45.90;;;;;;5055803;28;20036;-83
2022/03/11 03:40:32;;;;;;;13.98;7.70;;;1.90;45.20;;;;;;5037129;28;20024;-84
2022/03/11 03:42:58;;;;;;;15.55;6.93;;;2.50;44.40;;;;;;5036721;28;20030;-83
2022/03/11 03:45:24;;;;;;;13.27;7.40;;;2.80;43.50;;;;;;5035006;28;20064;-84
2022/03/11 03:47:50;;;;;;;13.73;6.97;;;3.00;43.30;;;;;;5035037;28;20068;-83
2022/03/11 03:50:15;;;;;;;14.15;7.05;;;3.10;42.80;;;;;;5041055;28;20037;-83
2022/03/11 03:52:42;;;;;;;14.73;7.65;;;3.30;42.50;;;;;;5034963;28;20103;-82
2022/03/11 03:55:08;;;;;;;14.85;7.45;;;3.30;42.20;;;;;;5034888;28;20022;-84
2022/03/11 03:57:34;;;;;;;13.95;6.82;;;3.10;42.70;;;;;;5034847;28;20135;-82
2022/03/11 04:00:00;;;;;;;13.32;6.80;;;2.80;42.50;;;;;;5046822;28;20052;-83
2022/03/11 04:02:25;;;;;;;15.73;7.72;;;2.00;43.70;;;;;;5055212;28;20056;-82
2022/03/11 04:04:51;;;;;;;17.45;8.52;;;1.60;45.30;;;;;;5055807;28;20031;-83
2022/03/11 04:07:17;;;;;;;19.33;9.23;;;1.60;45.50;;;;;;5055590;28;20381;-84
2022/03/11 04:09:43;;;;;;;25.05;12.75;;;1.60;45.40;;;;;;5054294;28;20033;-85
2022/03/11 04:12:09;;;;;;;24.83;12.23;;;1.60;45.30;;;;;;5049822;28;20073;-80
2022/03/11 04:14:35;;;;;;;22.33;9.80;;;1.60;45.80;;;;;;5034111;28;20526;-83
2022/03/11 04:17:00;;;;;;;21.75;12.10;;;1.60;45.70;;;;;;5034706;28;20029;-82
2022/03/11 04:19:26;;;;;;;23.25;11.85;;;1.70;45.20;;;;;;5044008;28;20029;-82
2022/03/11 04:21:53;;;;;;;34.47;16.20;;;1.40;45.60;;;;;;5054510;28;20028;-80
2022/03/11 04:24:19;;;;;;;37.17;17.23;;;1.20;46.10;;;;;;5054480;28;20123;-82
2022/03/11 04:26:45;;;;;;;30.60;14.43;;;1.50;46.10;;;;;;5055617;28;20504;-84
2022/03/11 04:29:13;;;;;;;23.10;11.57;;;1.90;45.20;;;;;;5046475;28;20014;-84
2022/03/11 04:31:40;;;;;;;17.05;8.50;;;1.10;45.50;;;;;;5060907;28;20061;-82
2022/03/11 04:34:06;;;;;;;20.88;8.82;;;0.00;48.10;;;;;;5034059;28;20384;-82
2022/03/11 04:36:38;;;;;;;29.35;13.98;;;0.10;49.80;;;;;;5034567;28;20464;-83
2022/03/11 04:39:07;;;;;;;25.65;11.55;;;0.50;47.80;;;;;;5035400;28;20109;-84
2022/03/11 04:41:36;;;;;;;22.40;11.18;;;0.80;47.30;;;;;;5040632;28;20388;-81
2022/03/11 04:44:03;;;;;;;18.40;9.60;;;1.40;46.30;;;;;;5053883;28;20075;-84
2022/03/11 04:46:29;;;;;;;15.05;7.40;;;2.10;45.00;;;;;;5050827;28;20021;-84
2022/03/11 04:48:55;;;;;;;13.57;6.68;;;1.90;43.50;;;;;;5062474;28;20076;-83
2022/03/11 04:51:22;;;;;;;12.80;6.57;;;1.40;44.60;;;;;;5053304;28;20036;-83
2022/03/11 04:53:49;;;;;;;15.98;8.27;;;1.40;45.50;;;;;;5034920;28;20029;-82
2022/03/11 04:56:15;;;;;;;18.42;9.10;;;1.90;44.40;;;;;;5033857;28;20025;-82
2022/03/11 04:58:41;;;;;;;16.60;8.48;;;2.00;44.10;;;;;;5052012;28;20387;-79
2022/03/11 05:01:07;;;;;;;18.33;9.57;;;2.30;44.00;;;;;;5052686;28;20017;-81
2022/03/11 05:03:34;;;;;;;17.75;9.40;;;2.60;43.20;;;;;;5051624;28;20036;-82
2022/03/11 05:06:00;;;;;;;15.80;8.10;;;2.60;42.80;;;;;;5049296;28;20048;-81
2022/03/11 05:08:25;;;;;;;24.05;9.98;;;3.00;42.20;;;;;;5052823;28;20135;-83
2022/03/11 05:10:51;;;;;;;25.73;10.85;;;3.10;41.30;;;;;;5054771;28;20534;-84
2022/03/11 05:13:20;;;;;;;23.55;11.00;;;3.10;41.60;;;;;;5055580;28;20115;-85
2022/03/11 05:15:46;;;;;;;24.23;12.20;;;3.30;41.10;;;;;;5074355;28;20026;-83
2022/03/11 05:18:11;;;;;;;19.92;9.00;;;3.30;41.40;;;;;;5055732;28;20029;-83
2022/03/11 05:20:37;;;;;;;19.13;9.85;;;3.40;41.90;;;;;;5073896;28;20097;-83
2022/03/11 05:23:03;;;;;;;20.15;9.55;;;3.60;40.90;;;;;;5056143;28;20444;-83
2022/03/11 05:25:30;;;;;;;20.33;8.40;;;3.30;40.70;;;;;;5056520;28;20557;-82
2022/03/11 05:27:55;;;;;;;17.95;8.00;;;2.40;42.40;;;;;;5056390;28;20032;-81
2022/03/11 05:30:21;;;;;;;18.60;8.80;;;1.60;43.90;;;;;;5055929;28;20028;-83
2022/03/11 05:32:47;;;;;;;16.73;8.30;;;1.50;44.70;;;;;;5071737;28;20119;-81
2022/03/11 05:35:14;;;;;;;14.60;7.20;;;1.60;44.30;;;;;;5053616;28;20029;-81
2022/03/11 05:37:40;;;;;;;17.25;7.70;;;2.00;44.00;;;;;;5065735;28;20032;-81
2022/03/11 05:40:07;;;;;;;16.27;7.70;;;2.40;42.90;;;;;;5035235;28;20494;-83
2022/03/11 05:42:33;;;;;;;16.13;8.25;;;2.40;42.90;;;;;;5035206;28;20017;-78
2022/03/11 05:44:59;;;;;;;18.15;8.43;;;2.70;42.30;;;;;;5035100;28;20155;-82
2022/03/11 05:47:25;;;;;;;31.48;16.50;;;3.00;42.00;;;;;;5035093;28;20108;-84
2022/03/11 05:49:50;;;;;;;22.65;12.40;;;3.20;41.90;;;;;;5044876;28;20028;-76
2022/03/11 05:52:19;;;;;;;18.15;8.95;;;3.50;42.00;;;;;;4804907;28;10000957;-82
2022/03/11 05:54:45;;;;;;;19.65;9.43;;;3.40;42.10;;;;;;5044778;28;20238;-80
2022/03/11 05:57:10;;;;;;;17.73;9.02;;;3.30;42.90;;;;;;5053756;28;20032;-82
2022/03/11 05:59:36;;;;;;;19.45;9.10;;;3.60;42.40;;;;;;5054538;28;20024;-80
2022/03/11 06:02:03;;;;;;;27.38;13.00;;;3.70;41.70;;;;;;5052112;28;20048;-81
2022/03/11 06:04:29;;;;;;;25.50;13.20;;;3.90;41.60;;;;;;5054110;28;20064;-78
2022/03/11 06:06:54;;;;;;;29.33;14.90;;;4.10;41.40;;;;;;5048523;28;20112;-83
2022/03/11 06:09:24;;;;;;;37.47;16.75;;;4.40;41.00;;;;;;5054850;28;20127;-80
2022/03/11 06:11:49;;;;;;;51.43;22.23;;;4.30;40.80;;;;;;5054665;28;20102;-83
2022/03/11 06:14:15;;;;;;;40.30;16.23;;;4.30;40.70;;;;;;5054702;28;20020;-83
2022/03/11 06:16:41;;;;;;;40.95;18.05;;;4.60;41.00;;;;;;5054561;28;20028;-84
2022/03/11 06:19:06;;;;;;;89.38;31.17;;;4.90;40.50;;;;;;5055009;28;20020;-84
2022/03/11 06:21:32;;;;;;;34.70;14.93;;;5.00;40.30;;;;;;5055542;28;20083;-82
2022/03/11 06:23:58;;;;;;;27.45;13.68;;;5.20;40.30;;;;;;5073188;28;20028;-83
2022/03/11 06:26:24;;;;;;;18.17;9.98;;;5.30;39.50;;;;;;5054168;28;20040;-82
2022/03/11 06:28:49;;;;;;;29.38;13.07;;;5.40;39.70;;;;;;5054287;28;20033;-81
2022/03/11 06:31:15;;;;;;;23.75;11.00;;;5.50;39.10;;;;;;5054378;28;20083;-82
2022/03/11 06:33:41;;;;;;;21.17;10.30;;;5.60;39.00;;;;;;5074796;28;20039;-84
2022/03/11 06:36:07;;;;;;;16.92;8.07;;;5.50;39.50;;;;;;5075779;28;20033;-80
2022/03/11 06:38:32;;;;;;;16.98;7.68;;;5.50;38.90;;;;;;5057848;28;20023;-81
2022/03/11 06:40:58;;;;;;;17.00;9.75;;;5.30;39.70;;;;;;5076392;28;20029;-83
2022/03/11 06:43:24;;;;;;;18.83;10.05;;;5.20;39.50;;;;;;5058900;28;20028;-83
2022/03/11 06:45:50;;;;;;;14.43;7.85;;;5.40;39.60;;;;;;5058458;28;20547;-82
2022/03/11 06:48:20;;;;;;;16.80;7.60;;;5.50;39.20;;;;;;5058262;28;20056;-80
2022/03/11 06:50:46;;;;;;;11.95;6.18;;;5.40;38.80;;;;;;5058803;28;20457;-81
2022/03/11 06:53:12;;;;;;;13.45;6.38;;;5.20;38.10;;;;;;5058113;28;20498;-80
2022/03/11 06:55:38;;;;;;;16.08;6.60;;;5.20;38.60;;;;;;5058001;28;20020;-81
2022/03/11 06:58:03;;;;;;;13.77;6.38;;;5.30;39.30;;;;;;5058468;28;20430;-79
2022/03/11 07:00:29;;;;;;;14.10;6.88;;;5.30;38.90;;;;;;5076065;28;20104;-83
2022/03/11 07:02:55;;;;;;;16.50;6.45;;;5.10;38.90;;;;;;5057461;28;20107;-79
2022/03/11 07:05:21;;;;;;;11.68;6.00;;;4.80;38.80;;;;;;5074729;28;20021;-79
2022/03/11 07:07:46;;;;;;;11.30;6.18;;;4.40;39.40;;;;;;5058125;28;20496;-80
2022/03/11 07:10:15;;;;;;;12.02;6.03;;;4.00;39.10;;;;;;5057978;28;20024;-81
2022/03/11 07:12:41;;;;;;;13.13;5.90;;;3.90;39.40;;;;;;5058560;28;20052;-82
2022/03/11 07:15:07;;;;;;;11.90;6.07;;;3.70;38.90;;;;;;5058475;28;20383;-81
2022/03/11 07:17:33;;;;;;;13.85;6.60;;;4.10;39.80;;;;;;5058468;28;20024;-77
2022/03/11 07:19:59;;;;;;;12.88;7.00;;;4.20;38.50;;;;;;5076279;28;20381;-79
2022/03/11 07:22:25;;;;;;;15.32;6.82;;;4.50;38.80;;;;;;5058259;28;20025;-81
2022/03/11 07:24:51;;;;;;;13.48;6.47;;;4.50;38.30;;;;;;5057865;28;20031;-83
2022/03/11 07:27:17;;;;;;;11.95;6.63;;;4.40;38.80;;;;;;5076361;28;20024;-78
2022/03/11 07:29:43;;;;;;;13.35;7.22;;;4.20;38.30;;;;;;5077145;28;20391;-79
2022/03/11 07:32:10;;;;;;;13.30;6.30;;;4.40;38.80;;;;;;5058227;28;20125;-79
2022/03/11 07:34:36;;;;;;;11.32;5.68;;;4.60;38.50;;;;;;5076252;28;20041;-79
2022/03/11 07:37:02;;;;;;;12.55;5.82;;;4.70;38.30;;;;;;5058069;28;20115;-81
2022/03/11 07:39:27;;;;;;;12.77;5.50;;;4.40;37.90;;;;;;5075426;28;20025;-78
2022/03/11 07:41:53;;;;;;;13.50;6.68;;;4.50;38.50;;;;;;5075804;28;20035;-80
2022/03/11 07:44:20;;;;;;;10.52;5.30;;;4.80;38.30;;;;;;5056914;28;20490;-79
2022/03/11 07:46:46;;;;;;;12.23;5.57;;;4.60;37.60;;;;;;4706222;28;10001061;-80
2022/03/11 07:49:13;;;;;;;11.27;5.57;;;4.70;37.70;;;;;;5036285;28;20104;-78
2022/03/11 07:51:39;;;;;;;9.30;4.90;;;4.80;36.90;;;;;;5037294;28;20033;-79
2022/03/11 07:54:05;;;;;;;10.52;5.80;;;5.10;36.90;;;;;;5036655;28;20029;-80
2022/03/11 07:56:30;;;;;;;12.32;5.30;;;5.80;36.60;;;;;;5054999;28;20025;-80
2022/03/11 07:58:56;;;;;;;11.20;6.07;;;6.20;35.80;;;;;;5053962;28;20425;-81
2022/03/11 08:01:22;;;;;;;17.48;6.82;;;6.90;35.20;;;;;;5066762;28;20028;-80
2022/03/11 08:03:48;;;;;;;11.23;5.47;;;7.80;33.70;;;;;;5074450;28;20423;-80
2022/03/11 08:06:14;;;;;;;12.02;5.00;;;9.10;34.00;;;;;;5074054;28;20104;-81
2022/03/11 08:08:41;;;;;;;10.00;5.07;;;10.90;31.90;;;;;;5052373;28;20071;-80
2022/03/11 08:11:07;;;;;;;11.13;5.90;;;11.50;30.90;;;;;;5054900;28;20056;-78
2022/03/11 08:13:34;;;;;;;11.18;6.07;;;12.10;30.90;;;;;;5056685;28;20025;-77
2022/03/11 08:16:00;;;;;;;20.48;9.15;;;12.10;31.00;;;;;;5058216;28;20493;-81
2022/03/11 08:18:26;;;;;;;23.33;10.57;;;12.50;30.90;;;;;;5057824;28;20078;-78
2022/03/11 08:20:55;;;;;;;13.75;6.80;;;12.90;30.40;;;;;;5075059;28;20024;-79
2022/03/11 08:23:21;;;;;;;15.85;7.85;;;13.00;29.90;;;;;;5073029;28;20031;-79
2022/03/11 08:25:47;;;;;;;12.25;5.88;;;13.10;29.40;;;;;;5072488;28;20024;-81
2022/03/11 08:28:13;;;;;;;12.88;6.85;;;12.90;29.00;;;;;;5073081;28;20081;-81
2022/03/11 08:30:40;;;;;;;12.80;6.43;;;12.00;29.80;;;;;;5072557;28;20024;-81
2022/03/11 08:33:06;;;;;;;13.20;6.60;;;11.70;30.80;;;;;;5054941;28;20025;-80
2022/03/11 08:35:32;;;;;;;11.40;6.55;;;12.70;30.80;;;;;;5074353;28;20364;-79
2022/03/11 08:37:59;;;;;;;10.35;5.93;;;14.40;29.40;;;;;;5074365;28;20036;-81
2022/03/11 08:40:26;;;;;;;8.88;5.03;;;14.80;28.80;;;;;;5056436;28;20445;-83
2022/03/11 08:42:52;;;;;;;11.68;6.10;;;13.80;29.30;;;;;;5056565;28;20478;-80
2022/03/11 08:45:21;;;;;;;10.10;5.75;;;14.00;29.30;;;;;;5056134;28;20116;-78
2022/03/11 08:47:47;;;;;;;11.48;6.15;;;13.90;29.40;;;;;;5074272;28;20382;-81
2022/03/11 08:50:13;;;;;;;8.50;5.00;;;13.90;28.90;;;;;;5074203;28;20466;-80
2022/03/11 08:52:40;;;;;;;10.50;5.93;;;14.50;29.30;;;;;;5056665;28;20060;-80
2022/03/11 08:55:06;;;;;;;10.05;6.15;;;15.20;28.90;;;;;;5055326;28;20088;-81
2022/03/11 08:57:32;;;;;;;9.52;5.45;;;14.60;28.10;;;;;;5074316;28;20091;-81
2022/03/11 08:59:57;;;;;;;12.27;6.82;;;13.70;28.70;;;;;;5056641;28;20115;-80
2022/03/11 09:02:23;;;;;;;9.60;5.75;;;13.40;28.90;;;;;;5073949;28;20040;-80
2022/03/11 09:04:50;;;;;;;9.10;5.30;;;13.40;29.70;;;;;;5056001;28;20036;-81
2022/03/11 09:07:15;;;;;;;8.57;4.97;;;14.80;29.00;;;;;;5056052;28;20024;-80
2022/03/11 09:09:44;;;;;;;8.77;5.22;;;15.90;28.20;;;;;;5055567;28;20123;-80
2022/03/11 09:12:09;;;;;;;11.52;5.55;;;17.30;28.20;;;;;;5055545;28;20091;-81
2022/03/11 09:14:35;;;;;;;14.05;6.70;;;18.20;27.20;;;;;;5055959;28;20044;-80
2022/03/11 09:17:04;;;;;;;11.15;6.60;;;17.70;26.70;;;;;;5073765;28;20378;-81
2022/03/11 09:19:29;;;;;;;9.25;5.00;;;16.70;27.00;;;;;;5056195;28;20490;-81
2022/03/11 09:21:55;;;;;;;11.02;6.15;;;15.40;27.90;;;;;;5055969;28;20024;-81
2022/03/11 09:24:26;;;;;;;10.43;5.35;;;15.90;28.10;;;;;;5073762;28;20020;-81
2022/03/11 09:26:52;;;;;;;8.52;5.18;;;17.10;28.00;;;;;;5055662;28;20040;-81
2022/03/11 09:29:17;;;;;;;10.20;5.22;;;18.20;27.60;;;;;;5055441;28;20016;-82
2022/03/11 09:31:43;;;;;;;9.45;5.60;;;18.90;27.10;;;;;;5073062;28;20062;-80
2022/03/11 09:34:09;;;;;;;9.35;5.18;;;19.10;27.60;;;;;;5073000;28;20331;-83
2022/03/11 09:36:35;;;;;;;10.95;5.55;;;20.00;26.90;;;;;;5055662;28;20036;-82
2022/03/11 09:39:00;;;;;;;14.95;5.78;;;18.60;26.20;;;;;;5055673;28;20024;-81
2022/03/11 09:41:29;;;;;;;8.93;5.90;;;18.50;27.00;;;;;;5055633;28;20031;-81
2022/03/11 09:43:55;;;;;;;8.75;5.10;;;18.00;27.10;;;;;;5055536;28;20024;-82
2022/03/11 09:46:21;;;;;;;9.45;5.40;;;18.40;26.90;;;;;;5073454;28;20025;-82
2022/03/11 09:48:48;;;;;;;8.90;5.22;;;19.50;26.90;;;;;;5055842;28;20021;-82
2022/03/11 09:51:15;;;;;;;8.43;4.75;;;20.00;26.70;;;;;;5055562;28;20036;-81
2022/03/11 09:53:42;;;;;;;8.05;5.10;;;20.30;26.50;;;;;;5073474;28;20012;-81
2022/03/11 09:56:08;;;;;;;8.45;4.55;;;18.10;26.70;;;;;;5073112;28;20063;-81
2022/03/11 09:58:34;;;;;;;8.23;4.85;;;18.20;27.00;;;;;;5055494;28;20111;-81
2022/03/11 10:00:59;;;;;;;9.38;4.68;;;19.30;26.80;;;;;;5073305;28;20028;-79
2022/03/11 10:03:27;;;;;;;11.38;4.93;;;21.20;26.80;;;;;;5055179;28;20040;-80
2022/03/11 10:05:54;;;;;;;7.20;4.70;;;23.00;26.00;;;;;;5073185;28;20016;-80
2022/03/11 10:08:38;;;;;;;8.20;4.85;;;23.80;25.70;;;;;;4940858;28;10001219;-80
2022/03/11 10:11:20;;;;;;;8.43;4.55;;;23.90;25.60;;;;;;5070070;28;20433;-79
2022/03/11 10:13:46;;;;;;;8.27;4.80;;;21.50;26.60;;;;;;5053314;28;20111;-80
2022/03/11 10:16:23;;;;;;;7.97;4.90;;;21.00;25.80;;;;;;5072657;28;20103;-79
2022/03/11 10:19:10;;;;;;;8.00;4.88;;;21.10;25.90;;;;;;5055008;28;20471;-80
2022/03/11 10:21:44;;;;;;;9.02;4.88;;;21.40;26.10;;;;;;5055026;28;20385;-80
2022/03/11 10:24:15;;;;;;;8.93;4.47;;;19.90;26.10;;;;;;5055149;28;20025;-79
2022/03/11 10:26:42;;;;;;;;;;;20.20;26.80;;;;;;5055127;28;20044;-79
2022/03/11 10:29:10;;;;;;;10.23;4.65;;;21.40;25.70;;;;;;5055078;28;19904;-82
2022/03/11 10:31:43;;;;;;;7.97;4.47;;;19.50;25.90;;;;;;5055131;28;20032;-82
2022/03/11 10:34:26;;;;;;;8.90;4.95;;;18.70;26.50;;;;;;5072445;28;20029;-78
2022/03/11 10:36:55;;;;;;;7.78;4.47;;;20.00;25.90;;;;;;5054792;28;20043;-82
2022/03/11 10:39:29;;;;;;;8.37;5.00;;;19.50;27.10;;;;;;5054768;28;20025;-80
2022/03/11 10:41:57;;;;;;;7.22;4.38;;;21.00;26.70;;;;;;5072932;28;20739;-80
2022/03/11 10:44:26;;;;;;;10.07;5.15;;;21.70;25.80;;;;;;5054414;28;20035;-81
2022/03/11 10:46:57;;;;;;;7.65;4.55;;;22.90;25.70;;;;;;5055093;28;20379;-80
2022/03/11 10:49:25;;;;;;;7.20;4.15;;;23.30;25.90;;;;;;5054896;28;20031;-80
2022/03/11 10:51:53;;;;;;;6.40;4.18;;;21.70;25.60;;;;;;5054680;28;20032;-81
2022/03/11 10:54:23;;;;;;;8.15;4.43;;;22.70;26.30;;;;;;5055063;28;20383;-81
2022/03/11 10:56:49;;;;;;;11.32;4.60;;;23.30;25.70;;;;;;5055144;28;20559;-81
2022/03/11 10:59:27;;;;;;;8.60;4.72;;;22.70;25.40;;;;;;5054880;28;20021;-81
2022/03/11 11:01:55;;;;;;;8.40;4.60;;;22.90;25.90;;;;;;5054771;28;20039;-81
2022/03/11 11:04:21;;;;;;;9.43;4.05;;;23.90;25.40;;;;;;5054795;28;20017;-81
2022/03/11 11:06:47;;;;;;;7.90;4.97;;;24.50;25.30;;;;;;5054549;28;20028;-81
2022/03/11 11:09:17;;;;;;;8.55;4.10;;;23.70;25.20;;;;;;5054701;28;20116;-80
2022/03/11 11:11:43;;;;;;;8.30;4.70;;;21.20;24.90;;;;;;5054445;28;20048;-79
2022/03/11 11:14:10;;;;;;;8.98;4.75;;;18.40;27.00;;;;;;5054223;28;20368;-80
2022/03/11 11:16:40;;;;;;;8.73;4.60;;;19.50;26.80;;;;;;5072418;28;20024;-80
2022/03/11 11:19:28;;;;;;;7.72;5.05;;;20.40;26.10;;;;;;5056345;28;20107;-80
2022/03/11 11:21:53;;;;;;;7.65;4.60;;;20.70;26.00;;;;;;5075621;28;20032;-80
2022/03/11 11:24:24;;;;;;;8.80;4.93;;;19.60;26.40;;;;;;5075797;28;20029;-80
2022/03/11 11:26:53;;;;;;;8.50;4.20;;;17.90;26.20;;;;;;5058107;28;20029;-80
2022/03/11 11:29:32;;;;;;;7.28;4.45;;;15.30;26.40;;;;;;5075717;28;20024;-79
2022/03/11 11:31:59;;;;;;;9.35;4.20;;;12.90;27.60;;;;;;5057986;28;20113;-80
2022/03/11 11:34:34;;;;;;;7.45;4.10;;;12.00;28.50;;;;;;5058036;28;20025;-80
2022/03/11 11:37:01;;;;;;;8.32;4.30;;;12.00;28.50;;;;;;5058165;28;20071;-80
2022/03/11 11:39:41;;;;;;;7.20;4.25;;;12.00;28.60;;;;;;5076071;28;20551;-80
2022/03/11 11:42:12;;;;;;;6.50;4.00;;;11.60;28.50;;;;;;5075761;28;20040;-80
2022/03/11 11:44:40;;;;;;;7.13;4.53;;;11.60;29.10;;;;;;5057858;28;20356;-80
2022/03/11 11:47:15;;;;;;;7.53;3.88;;;11.60;28.20;;;;;;5057950;28;20498;-80
2022/03/11 11:49:45;;;;;;;7.22;4.20;;;11.70;28.60;;;;;;5057827;28;20025;-81
2022/03/11 11:52:24;;;;;;;7.53;3.65;;;11.50;29.10;;;;;;5057759;28;20062;-81
2022/03/11 11:54:50;;;;;;;7.00;3.92;;;11.50;28.70;;;;;;5075681;28;20020;-80
2022/03/11 11:57:17;;;;;;;7.88;4.00;;;10.80;29.20;;;;;;5057487;28;20035;-80
2022/03/11 11:59:43;;;;;;;13.60;4.75;;;10.30;29.30;;;;;;5057752;28;20425;-83
2022/03/11 12:02:22;;;;;;;7.80;4.13;;;10.50;29.00;;;;;;5075558;28;20467;-81
2022/03/11 12:04:48;;;;;;;6.78;3.83;;;11.00;29.30;;;;;;5075469;28;20039;-80
2022/03/11 12:07:15;;;;;;;7.20;4.28;;;11.90;29.20;;;;;;5057474;28;20020;-79
2022/03/11 12:09:41;;;;;;;8.75;3.90;;;12.30;28.80;;;;;;5074876;28;20024;-79
2022/03/11 12:12:44;;;;;;;7.63;4.40;;;12.20;28.40;;;;;;5075114;28;20127;-80
2022/03/11 12:15:11;;;;;;;7.50;4.15;;;11.90;28.30;;;;;;5056627;28;20021;-80
2022/03/11 12:17:43;;;;;;;7.28;4.10;;;12.10;28.30;;;;;;5057137;28;20024;-80
2022/03/11 12:20:49;;;;;;;7.80;4.35;;;12.50;28.50;;;;;;5074979;28;20418;-79
2022/03/11 12:23:14;;;;;;;7.60;4.05;;;13.00;28.40;;;;;;5057137;28;20047;-80
2022/03/11 12:26:01;;;;;;;5.55;3.53;;;12.80;28.00;;;;;;5056965;28;20111;-79
2022/03/11 12:28:33;;;;;;;7.88;4.80;;;12.80;27.90;;;;;;5057130;28;20424;-80
2022/03/11 12:31:03;;;;;;;7.93;4.00;;;12.40;27.50;;;;;;5056906;28;20021;-79
2022/03/11 12:33:41;;;;;;;8.23;3.90;;;11.90;28.40;;;;;;5057174;28;20028;-79
2022/03/11 12:36:08;;;;;;;7.72;3.45;;;11.10;28.20;;;;;;5074497;28;20070;-82
2022/03/11 12:38:37;;;;;;;6.35;3.60;;;10.70;28.70;;;;;;5056948;28;20032;-79
2022/03/11 12:41:21;;;;;;;6.57;3.50;;;10.00;28.60;;;;;;5056741;28;20029;-80
2022/03/11 12:43:47;;;;;;;6.70;3.25;;;9.90;29.20;;;;;;5055512;28;20078;-80
2022/03/11 12:46:13;;;;;;;6.32;3.40;;;10.20;29.00;;;;;;5057102;28;20119;-80